createdAt,value
2018-01-10T00:00:02.138Z,3.96
2018-01-10T00:00:06.168Z,3.96
2018-01-10T00:00:10.282Z,3.95
2018-01-10T00:00:14.310Z,3.95
2018-01-10T00:00:18.441Z,3.94
2018-01-10T00:00:22.778Z,3.94
2018-01-10T00:00:27.123Z,3.93
2018-01-10T00:00:31.040Z,3.94
2018-01-10T00:00:35.166Z,3.94
2018-01-10T00:00:39.307Z,3.93
2018-01-10T00:00:43.431Z,3.93
2018-01-10T00:00:47.674Z,3.93
2018-01-10T00:00:51.580Z,3.92
2018-01-10T00:00:55.983Z,3.92
2018-01-10T00:01:00.421Z,3.92
2018-01-10T00:01:04.933Z,3.92
2018-01-10T00:01:09.159Z,3.91
2018-01-10T00:01:13.458Z,3.91
2018-01-10T00:01:17.591Z,3.91
2018-01-10T00:01:21.706Z,3.9
2018-01-10T00:01:25.952Z,3.9
2018-01-10T00:01:29.970Z,3.9
2018-01-10T00:01:34.097Z,3.9
2018-01-10T00:01:38.333Z,3.9
2018-01-10T00:01:42.465Z,3.89
2018-01-10T00:01:46.724Z,3.9
2018-01-10T00:01:50.863Z,3.89
2018-01-10T00:01:55.096Z,3.89
2018-01-10T00:01:59.112Z,3.88
2018-01-10T00:02:03.335Z,3.87
2018-01-10T00:02:07.680Z,3.87
2018-01-10T00:02:11.820Z,3.87
2018-01-10T00:02:16.072Z,3.88
2018-01-10T00:02:20.211Z,3.87
2018-01-10T00:02:24.345Z,3.86
2018-01-10T00:02:28.469Z,3.86
2018-01-10T00:02:32.700Z,3.86
2018-01-10T00:02:36.943Z,3.86
2018-01-10T00:02:41.175Z,3.85
2018-01-10T00:02:45.417Z,3.85
2018-01-10T00:02:49.444Z,3.85
2018-01-10T00:02:53.674Z,3.85
2018-01-10T00:02:57.808Z,3.85
2018-01-10T00:03:02.025Z,3.84
2018-01-10T00:03:06.142Z,3.83
2018-01-10T00:03:10.391Z,3.83
2018-01-10T00:03:14.628Z,3.83
2018-01-10T00:03:18.864Z,3.83
2018-01-10T00:03:23.203Z,3.83
2018-01-10T00:03:27.445Z,3.82
2018-01-10T00:03:31.492Z,3.82
2018-01-10T00:03:35.400Z,3.82
2018-01-10T00:03:39.434Z,3.81
2018-01-10T00:03:43.562Z,3.81
2018-01-10T00:03:47.703Z,3.8
2018-01-10T00:03:51.935Z,3.8
2018-01-10T00:03:56.170Z,3.8
2018-01-10T00:04:00.207Z,3.81
2018-01-10T00:04:04.514Z,3.81
2018-01-10T00:04:08.535Z,3.79
2018-01-10T00:04:12.652Z,3.79
2018-01-10T00:04:16.664Z,3.79
2018-01-10T00:04:20.584Z,3.79
2018-01-10T00:04:24.513Z,3.78
2018-01-10T00:04:28.534Z,3.77
2018-01-10T00:04:32.654Z,3.79
2018-01-10T00:04:36.682Z,3.78
2018-01-10T00:04:40.931Z,3.77
2018-01-10T00:04:45.114Z,3.77
2018-01-10T00:04:49.251Z,3.77
2018-01-10T00:04:53.489Z,3.77
2018-01-10T00:04:57.603Z,3.76
2018-01-10T00:05:01.856Z,3.76
2018-01-10T00:05:05.993Z,3.75
2018-01-10T00:05:10.121Z,3.75
2018-01-10T00:05:14.278Z,3.75
2018-01-10T00:05:18.408Z,3.74
2018-01-10T00:05:22.446Z,3.73
2018-01-10T00:05:26.575Z,3.74
2018-01-10T00:05:30.610Z,3.73
2018-01-10T00:05:34.831Z,3.73
2018-01-10T00:05:38.852Z,3.73
2018-01-10T00:05:42.768Z,3.73
2018-01-10T00:05:47.110Z,3.72
2018-01-10T00:05:51.342Z,3.72
2018-01-10T00:05:55.686Z,3.72
2018-01-10T00:06:00.037Z,3.72
2018-01-10T00:06:04.070Z,3.71
2018-01-10T00:06:08.318Z,3.71
2018-01-10T00:06:12.562Z,3.71
2018-01-10T00:06:16.865Z,3.7
2018-01-10T00:06:21.094Z,3.7
2018-01-10T00:06:25.415Z,3.71
2018-01-10T00:06:29.748Z,3.7
2018-01-10T00:06:33.658Z,3.7
2018-01-10T00:06:38.010Z,3.7
2018-01-10T00:06:42.230Z,3.7
2018-01-10T00:06:46.479Z,3.69
2018-01-10T00:06:50.514Z,3.69
2018-01-10T00:06:54.436Z,3.7
2018-01-10T00:06:58.496Z,3.68
2018-01-10T00:07:03.248Z,3.69
2018-01-10T00:07:07.370Z,3.68
2018-01-10T00:07:11.415Z,3.68
2018-01-10T00:07:15.756Z,3.68
2018-01-10T00:07:20.004Z,3.68
2018-01-10T00:07:24.412Z,3.67
2018-01-10T00:07:28.435Z,3.67
2018-01-10T00:07:32.667Z,3.67
2018-01-10T00:07:36.695Z,3.67
2018-01-10T00:07:40.612Z,3.67
2018-01-10T00:07:44.754Z,3.66
2018-01-10T00:07:48.670Z,3.67
2018-01-10T00:07:52.910Z,3.66
2018-01-10T00:07:57.167Z,3.66
2018-01-10T00:08:01.322Z,3.66
2018-01-10T00:08:05.765Z,3.66
2018-01-10T00:08:09.906Z,3.65
2018-01-10T00:08:14.035Z,3.65
2018-01-10T00:08:18.111Z,3.65
2018-01-10T00:08:22.134Z,3.63
2018-01-10T00:08:26.267Z,3.65
2018-01-10T00:08:30.609Z,3.65
2018-01-10T00:08:34.634Z,3.63
2018-01-10T00:08:38.890Z,3.65
2018-01-10T00:08:43.232Z,3.63
2018-01-10T00:08:47.373Z,3.63
2018-01-10T00:08:51.713Z,3.63
2018-01-10T00:08:55.857Z,3.62
2018-01-10T00:08:59.775Z,3.63
2018-01-10T00:09:04.047Z,3.61
2018-01-10T00:09:08.183Z,3.62
2018-01-10T00:09:12.427Z,3.62
2018-01-10T00:09:16.454Z,3.62
2018-01-10T00:09:20.490Z,3.62
2018-01-10T00:09:24.510Z,3.62
2018-01-10T00:09:28.751Z,3.62
2018-01-10T00:09:32.791Z,3.61
2018-01-10T00:09:36.896Z,3.61
2018-01-10T00:09:41.132Z,3.62
2018-01-10T00:09:45.353Z,3.62
2018-01-10T00:09:49.537Z,3.61
2018-01-10T00:09:53.770Z,3.6
2018-01-10T00:09:57.900Z,3.6
2018-01-10T00:10:01.931Z,3.61
2018-01-10T00:10:06.164Z,3.6
2018-01-10T00:10:10.392Z,3.6
2018-01-10T00:10:14.651Z,3.6
2018-01-10T00:10:18.782Z,3.6
2018-01-10T00:10:22.922Z,3.6
2018-01-10T00:10:27.044Z,3.59
2018-01-10T00:10:30.945Z,3.6
2018-01-10T00:10:34.981Z,3.59
2018-01-10T00:10:39.221Z,3.6
2018-01-10T00:10:43.145Z,3.6
2018-01-10T00:10:47.491Z,3.6
2018-01-10T00:10:51.408Z,3.59
2018-01-10T00:10:55.487Z,3.59
2018-01-10T00:10:59.643Z,3.59
2018-01-10T00:11:03.830Z,3.58
2018-01-10T00:11:08.073Z,3.58
2018-01-10T00:11:12.100Z,3.58
2018-01-10T00:11:16.243Z,3.58
2018-01-10T00:11:20.482Z,3.59
2018-01-10T00:11:24.509Z,3.59
2018-01-10T00:11:28.320Z,3.57
2018-01-10T00:11:32.237Z,3.58
2018-01-10T00:11:36.148Z,3.59
2018-01-10T00:11:40.489Z,3.58
2018-01-10T00:11:44.753Z,3.57
2018-01-10T00:11:48.890Z,3.57
2018-01-10T00:11:53.235Z,3.57
2018-01-10T00:11:57.463Z,3.57
2018-01-10T00:12:01.612Z,3.57
2018-01-10T00:12:05.857Z,3.57
2018-01-10T00:12:09.880Z,3.57
2018-01-10T00:12:14.096Z,3.57
2018-01-10T00:12:18.003Z,3.56
2018-01-10T00:12:22.243Z,3.56
2018-01-10T00:12:26.462Z,3.56
2018-01-10T00:12:30.802Z,3.56
2018-01-10T00:12:35.160Z,3.56
2018-01-10T00:12:39.178Z,3.56
2018-01-10T00:12:43.462Z,3.56
2018-01-10T00:12:47.592Z,3.56
2018-01-10T00:12:51.624Z,3.56
2018-01-10T00:12:55.775Z,3.55
2018-01-10T00:13:00.063Z,3.55
2018-01-10T00:13:04.313Z,3.55
2018-01-10T00:13:08.659Z,3.55
2018-01-10T00:13:12.908Z,3.55
2018-01-10T00:13:17.142Z,3.54
2018-01-10T00:13:21.176Z,3.54
2018-01-10T00:13:25.413Z,3.53
2018-01-10T00:13:29.641Z,3.54
2018-01-10T00:13:33.567Z,3.53
2018-01-10T00:13:37.607Z,3.54
2018-01-10T00:13:41.841Z,3.52
2018-01-10T00:13:46.089Z,3.53
2018-01-10T00:13:50.106Z,3.53
2018-01-10T00:13:54.353Z,3.53
2018-01-10T00:13:58.695Z,3.53
2018-01-10T00:14:02.923Z,3.53
2018-01-10T00:14:07.157Z,3.52
2018-01-10T00:14:11.502Z,3.52
2018-01-10T00:14:15.744Z,3.52
2018-01-10T00:14:19.773Z,3.51
2018-01-10T00:14:23.797Z,3.51
2018-01-10T00:14:27.926Z,3.51
2018-01-10T00:14:32.042Z,3.51
2018-01-10T00:14:36.289Z,3.5
2018-01-10T00:14:40.519Z,3.51
2018-01-10T00:14:44.857Z,3.5
2018-01-10T00:14:49.107Z,3.5
2018-01-10T00:14:53.450Z,3.5
2018-01-10T00:14:57.469Z,3.49
2018-01-10T00:15:01.511Z,3.5
2018-01-10T00:15:05.744Z,3.49
2018-01-10T00:15:09.773Z,3.48
2018-01-10T00:15:14.109Z,3.49
2018-01-10T00:15:18.261Z,3.48
2018-01-10T00:15:22.389Z,3.49
2018-01-10T00:15:26.527Z,3.49
2018-01-10T00:15:30.565Z,3.48
2018-01-10T00:15:34.488Z,3.48
2018-01-10T00:15:38.630Z,3.49
2018-01-10T00:15:42.657Z,3.48
2018-01-10T00:15:46.683Z,3.47
2018-01-10T00:15:50.601Z,3.48
2018-01-10T00:15:54.930Z,3.48
2018-01-10T00:15:59.157Z,3.49
2018-01-10T00:16:03.730Z,3.48
2018-01-10T00:16:07.778Z,3.47
2018-01-10T00:16:11.807Z,3.47
2018-01-10T00:16:16.058Z,3.47
2018-01-10T00:16:20.192Z,3.47
2018-01-10T00:16:24.324Z,3.47
2018-01-10T00:16:28.453Z,3.46
2018-01-10T00:16:32.470Z,3.46
2018-01-10T00:16:36.481Z,3.46
2018-01-10T00:16:40.729Z,3.46
2018-01-10T00:16:44.744Z,3.45
2018-01-10T00:16:48.884Z,3.46
2018-01-10T00:16:53.216Z,3.45
2018-01-10T00:16:57.350Z,3.46
2018-01-10T00:17:01.478Z,3.45
2018-01-10T00:17:05.701Z,3.45
2018-01-10T00:17:09.834Z,3.46
2018-01-10T00:17:13.970Z,3.44
2018-01-10T00:17:18.103Z,3.45
2018-01-10T00:17:22.338Z,3.45
2018-01-10T00:17:26.568Z,3.45
2018-01-10T00:17:30.792Z,3.43
2018-01-10T00:17:34.612Z,3.45
2018-01-10T00:17:42.978Z,3.43
2018-01-10T00:17:47.311Z,3.43
2018-01-10T00:17:51.340Z,3.43
2018-01-10T00:17:55.699Z,3.44
2018-01-10T00:17:59.738Z,3.43
2018-01-10T00:18:03.764Z,3.43
2018-01-10T00:18:07.898Z,3.42
2018-01-10T00:18:12.042Z,3.43
2018-01-10T00:18:16.218Z,3.41
2018-01-10T00:18:20.562Z,3.42
2018-01-10T00:18:24.907Z,3.42
2018-01-10T00:18:28.819Z,3.43
2018-01-10T00:18:32.958Z,3.42
2018-01-10T00:18:37.085Z,3.42
2018-01-10T00:18:41.320Z,3.42
2018-01-10T00:18:45.474Z,3.41
2018-01-10T00:18:49.604Z,3.42
2018-01-10T00:18:53.732Z,3.42
2018-01-10T00:18:57.767Z,3.41
2018-01-10T00:19:02.058Z,3.41
2018-01-10T00:19:06.194Z,3.4
2018-01-10T00:19:10.443Z,3.42
2018-01-10T00:19:14.347Z,3.41
2018-01-10T00:19:18.464Z,3.41
2018-01-10T00:19:22.658Z,3.41
2018-01-10T00:19:26.584Z,3.41
2018-01-10T00:19:30.823Z,3.41
2018-01-10T00:19:34.755Z,3.4
2018-01-10T00:19:38.774Z,3.4
2018-01-10T00:19:43.005Z,3.4
2018-01-10T00:19:47.048Z,3.4
2018-01-10T00:19:51.069Z,3.41
2018-01-10T00:19:55.105Z,3.39
2018-01-10T00:19:59.362Z,3.4
2018-01-10T00:20:03.602Z,3.41
2018-01-10T00:20:07.627Z,3.39
2018-01-10T00:20:11.979Z,3.39
2018-01-10T00:20:15.987Z,3.4
2018-01-10T00:20:20.215Z,3.39
2018-01-10T00:20:24.351Z,3.4
2018-01-10T00:20:28.480Z,3.39
2018-01-10T00:20:32.506Z,3.38
2018-01-10T00:20:36.413Z,3.39
2018-01-10T00:20:40.544Z,3.38
2018-01-10T00:20:44.572Z,3.39
2018-01-10T00:20:48.690Z,3.38
2018-01-10T00:20:52.711Z,3.38
2018-01-10T00:20:56.946Z,3.38
2018-01-10T00:21:01.081Z,3.38
2018-01-10T00:21:05.162Z,3.37
2018-01-10T00:21:09.387Z,3.36
2018-01-10T00:21:13.623Z,3.37
2018-01-10T00:21:17.746Z,3.37
2018-01-10T00:21:21.475Z,3.36
2018-01-10T00:21:25.706Z,3.36
2018-01-10T00:21:30.045Z,3.36
2018-01-10T00:21:34.069Z,3.36
2018-01-10T00:21:37.879Z,3.35
2018-01-10T00:21:42.219Z,3.34
2018-01-10T00:21:46.358Z,3.35
2018-01-10T00:21:50.587Z,3.35
2018-01-10T00:21:54.410Z,3.35
2018-01-10T00:21:58.435Z,3.34
2018-01-10T00:22:02.357Z,3.34
2018-01-10T00:22:06.399Z,3.34
2018-01-10T00:22:10.423Z,3.34
2018-01-10T00:22:15.008Z,3.33
2018-01-10T00:22:19.158Z,3.33
2018-01-10T00:22:23.072Z,3.33
2018-01-10T00:22:27.324Z,3.33
2018-01-10T00:22:31.336Z,3.32
2018-01-10T00:22:35.138Z,3.32
2018-01-10T00:22:39.274Z,3.31
2018-01-10T00:22:43.621Z,3.31
2018-01-10T00:22:47.657Z,3.31
2018-01-10T00:22:51.789Z,3.31
2018-01-10T00:22:55.901Z,3.3
2018-01-10T00:22:59.917Z,3.3
2018-01-10T00:23:04.041Z,3.31
2018-01-10T00:23:08.075Z,3.3
2018-01-10T00:23:12.100Z,3.3
2018-01-10T00:23:16.339Z,3.29
2018-01-10T00:23:20.616Z,3.29
2018-01-10T00:23:24.750Z,3.29
2018-01-10T00:23:28.889Z,3.28
2018-01-10T00:23:33.048Z,3.29
2018-01-10T00:23:36.961Z,3.28
2018-01-10T00:23:40.672Z,3.27
2018-01-10T00:23:45.009Z,3.27
2018-01-10T00:23:49.040Z,3.27
2018-01-10T00:23:53.280Z,3.27
2018-01-10T00:23:57.295Z,3.27
2018-01-10T00:24:01.777Z,3.26
2018-01-10T00:24:05.798Z,3.27
2018-01-10T00:24:09.703Z,3.26
2018-01-10T00:24:13.833Z,3.26
2018-01-10T00:24:17.965Z,3.26
2018-01-10T00:24:22.204Z,3.26
2018-01-10T00:24:26.228Z,3.25
2018-01-10T00:24:30.457Z,3.25
2018-01-10T00:24:34.585Z,3.25
2018-01-10T00:24:38.946Z,3.25
2018-01-10T00:24:42.889Z,3.23
2018-01-10T00:24:47.027Z,3.23
2018-01-10T00:24:51.198Z,3.24
2018-01-10T00:24:55.436Z,3.23
2018-01-10T00:24:59.802Z,3.23
2018-01-10T00:25:04.031Z,3.23
2018-01-10T00:25:08.057Z,3.22
2018-01-10T00:25:12.173Z,3.22
2018-01-10T00:25:16.528Z,3.22
2018-01-10T00:25:20.336Z,3.22
2018-01-10T00:25:24.479Z,3.21
2018-01-10T00:25:28.498Z,3.2
2018-01-10T00:25:32.836Z,3.21
2018-01-10T00:25:36.772Z,3.2
2018-01-10T00:25:40.797Z,3.2
2018-01-10T00:25:44.946Z,3.19
2018-01-10T00:25:49.067Z,3.2
2018-01-10T00:25:53.414Z,3.19
2018-01-10T00:25:57.534Z,3.19
2018-01-10T00:26:01.470Z,3.19
2018-01-10T00:26:05.603Z,3.19
2018-01-10T00:26:09.737Z,3.19
2018-01-10T00:26:13.773Z,3.18
2018-01-10T00:26:18.016Z,3.19
2018-01-10T00:26:22.352Z,3.18
2018-01-10T00:26:26.493Z,3.18
2018-01-10T00:26:30.628Z,3.16
2018-01-10T00:26:34.642Z,3.17
2018-01-10T00:26:38.794Z,3.17
2018-01-10T00:26:43.035Z,3.16
2018-01-10T00:26:47.156Z,3.17
2018-01-10T00:26:51.494Z,3.16
2018-01-10T00:26:55.725Z,3.17
2018-01-10T00:26:59.957Z,3.16
2018-01-10T00:27:04.136Z,3.15
2018-01-10T00:27:08.158Z,3.15
2018-01-10T00:27:12.512Z,3.15
2018-01-10T00:27:16.783Z,3.15
2018-01-10T00:27:20.811Z,3.15
2018-01-10T00:27:25.168Z,3.14
2018-01-10T00:27:29.082Z,3.14
2018-01-10T00:27:33.093Z,3.14
2018-01-10T00:27:37.218Z,3.14
2018-01-10T00:27:41.346Z,3.13
2018-01-10T00:27:45.488Z,3.13
2018-01-10T00:27:49.617Z,3.12
2018-01-10T00:27:53.747Z,3.13
2018-01-10T00:27:57.869Z,3.12
2018-01-10T00:28:02.304Z,3.13
2018-01-10T00:28:06.442Z,3.12
2018-01-10T00:28:10.472Z,3.12
2018-01-10T00:28:14.625Z,3.12
2018-01-10T00:28:18.986Z,3.11
2018-01-10T00:28:23.220Z,3.12
2018-01-10T00:28:27.363Z,3.11
2018-01-10T00:28:31.598Z,3.11
2018-01-10T00:28:35.515Z,3.1
2018-01-10T00:28:39.852Z,3.1
2018-01-10T00:28:44.219Z,3.1
2018-01-10T00:28:48.358Z,3.1
2018-01-10T00:28:52.505Z,3.1
2018-01-10T00:28:56.620Z,3.1
2018-01-10T00:29:00.848Z,3.1
2018-01-10T00:29:04.976Z,3.09
2018-01-10T00:29:08.896Z,3.09
2018-01-10T00:29:13.038Z,3.09
2018-01-10T00:29:17.179Z,3.09
2018-01-10T00:29:21.198Z,3.08
2018-01-10T00:29:25.456Z,3.07
2018-01-10T00:29:29.596Z,3.08
2018-01-10T00:29:33.711Z,3.08
2018-01-10T00:29:37.940Z,3.07
2018-01-10T00:29:42.179Z,3.08
2018-01-10T00:29:46.521Z,3.07
2018-01-10T00:29:50.752Z,3.06
2018-01-10T00:29:54.882Z,3.06
2018-01-10T00:29:58.889Z,3.06
2018-01-10T00:30:03.319Z,3.06
2018-01-10T00:30:07.572Z,3.06
2018-01-10T00:30:11.804Z,3.06
2018-01-10T00:30:16.146Z,3.06
2018-01-10T00:30:20.562Z,3.05
2018-01-10T00:30:24.800Z,3.05
2018-01-10T00:30:29.036Z,3.05
2018-01-10T00:30:33.066Z,3.05
2018-01-10T00:30:37.090Z,3.04
2018-01-10T00:30:41.209Z,3.04
2018-01-10T00:30:45.227Z,3.04
2018-01-10T00:30:49.353Z,3.04
2018-01-10T00:30:53.390Z,3.04
2018-01-10T00:30:57.522Z,3.03
2018-01-10T00:31:01.997Z,3.03
2018-01-10T00:31:06.034Z,3.03
2018-01-10T00:31:10.272Z,3.02
2018-01-10T00:31:14.398Z,3.03
2018-01-10T00:31:18.541Z,3.02
2018-01-10T00:31:22.675Z,3.03
2018-01-10T00:31:26.930Z,3.02
2018-01-10T00:31:31.220Z,3.02
2018-01-10T00:31:34.922Z,3.03
2018-01-10T00:31:39.045Z,3.02
2018-01-10T00:31:43.096Z,3.02
2018-01-10T00:31:47.119Z,3.01
2018-01-10T00:31:51.366Z,3.02
2018-01-10T00:31:55.702Z,3.02
2018-01-10T00:31:59.830Z,3
2018-01-10T00:32:03.849Z,3.01
2018-01-10T00:32:07.860Z,3
2018-01-10T00:32:12.104Z,3
2018-01-10T00:32:16.342Z,2.99
2018-01-10T00:32:20.480Z,3
2018-01-10T00:32:24.724Z,2.99
2018-01-10T00:32:28.857Z,2.99
2018-01-10T00:32:32.784Z,2.98
2018-01-10T00:32:36.916Z,2.99
2018-01-10T00:32:40.842Z,2.99
2018-01-10T00:32:45.222Z,2.98
2018-01-10T00:32:49.473Z,2.97
2018-01-10T00:32:53.693Z,2.97
2018-01-10T00:32:57.722Z,2.97
2018-01-10T00:33:02.068Z,2.97
2018-01-10T00:33:06.106Z,2.97
2018-01-10T00:33:10.347Z,2.97
2018-01-10T00:33:14.596Z,2.97
2018-01-10T00:33:18.726Z,2.96
2018-01-10T00:33:22.864Z,2.96
2018-01-10T00:33:27.216Z,2.95
2018-01-10T00:33:31.260Z,2.96
2018-01-10T00:33:35.286Z,2.96
2018-01-10T00:33:39.522Z,2.95
2018-01-10T00:33:43.762Z,2.95
2018-01-10T00:33:48.008Z,2.95
2018-01-10T00:33:52.245Z,2.96
2018-01-10T00:33:56.441Z,2.95
2018-01-10T00:34:00.348Z,2.95
2018-01-10T00:34:04.279Z,2.94
2018-01-10T00:34:08.438Z,2.94
2018-01-10T00:34:12.768Z,2.94
2018-01-10T00:34:17.157Z,2.94
2018-01-10T00:34:21.075Z,2.94
2018-01-10T00:34:25.317Z,2.94
2018-01-10T00:34:29.344Z,2.93
2018-01-10T00:34:33.367Z,2.94
2018-01-10T00:34:37.593Z,2.94
2018-01-10T00:34:41.736Z,2.93
2018-01-10T00:34:45.865Z,2.94
2018-01-10T00:34:50.203Z,2.93
2018-01-10T00:34:54.440Z,2.92
2018-01-10T00:34:58.356Z,2.92
2018-01-10T00:35:02.485Z,2.92
2018-01-10T00:35:06.634Z,2.93
2018-01-10T00:35:10.670Z,2.91
2018-01-10T00:35:14.795Z,2.91
2018-01-10T00:35:18.699Z,2.92
2018-01-10T00:35:23.042Z,2.92
2018-01-10T00:35:27.277Z,2.91
2018-01-10T00:35:31.527Z,2.91
2018-01-10T00:35:35.655Z,2.91
2018-01-10T00:35:39.914Z,2.91
2018-01-10T00:35:43.942Z,2.91
2018-01-10T00:35:48.190Z,2.9
2018-01-10T00:35:52.529Z,2.9
2018-01-10T00:35:56.769Z,2.9
2018-01-10T00:36:01.028Z,2.9
2018-01-10T00:36:05.153Z,2.9
2018-01-10T00:36:09.167Z,2.9
2018-01-10T00:36:13.524Z,2.91
2018-01-10T00:36:17.460Z,2.9
2018-01-10T00:36:21.385Z,2.9
2018-01-10T00:36:25.523Z,2.9
2018-01-10T00:36:29.553Z,2.9
2018-01-10T00:36:33.579Z,2.89
2018-01-10T00:36:37.915Z,2.89
2018-01-10T00:36:42.043Z,2.88
2018-01-10T00:36:45.989Z,2.89
2018-01-10T00:36:50.029Z,2.89
2018-01-10T00:36:54.261Z,2.88
2018-01-10T00:36:58.100Z,2.89
2018-01-10T00:37:02.576Z,2.88
2018-01-10T00:37:06.736Z,2.88
2018-01-10T00:37:10.879Z,2.88
2018-01-10T00:37:14.906Z,2.87
2018-01-10T00:37:19.044Z,2.88
2018-01-10T00:37:23.282Z,2.87
2018-01-10T00:37:27.510Z,2.87
2018-01-10T00:37:31.846Z,2.87
2018-01-10T00:37:35.966Z,2.87
2018-01-10T00:37:40.203Z,2.87
2018-01-10T00:37:44.231Z,2.87
2018-01-10T00:37:48.367Z,2.87
2018-01-10T00:37:52.718Z,2.86
2018-01-10T00:37:56.945Z,2.87
2018-01-10T00:38:01.200Z,2.86
2018-01-10T00:38:05.326Z,2.86
2018-01-10T00:38:09.247Z,2.87
2018-01-10T00:38:13.397Z,2.86
2018-01-10T00:38:17.429Z,2.86
2018-01-10T00:38:21.686Z,2.85
2018-01-10T00:38:25.796Z,2.86
2018-01-10T00:38:29.824Z,2.86
2018-01-10T00:38:33.868Z,2.86
2018-01-10T00:38:38.198Z,2.86
2018-01-10T00:38:42.354Z,2.85
2018-01-10T00:38:46.488Z,2.86
2018-01-10T00:38:50.510Z,2.85
2018-01-10T00:38:54.740Z,2.85
2018-01-10T00:38:58.760Z,2.84
2018-01-10T00:39:02.996Z,2.84
2018-01-10T00:39:07.034Z,2.84
2018-01-10T00:39:11.168Z,2.83
2018-01-10T00:39:15.293Z,2.85
2018-01-10T00:39:19.634Z,2.83
2018-01-10T00:39:23.782Z,2.84
2018-01-10T00:39:28.025Z,2.84
2018-01-10T00:39:32.047Z,2.84
2018-01-10T00:39:35.960Z,2.84
2018-01-10T00:39:40.295Z,2.83
2018-01-10T00:39:44.587Z,2.84
2018-01-10T00:39:48.814Z,2.83
2018-01-10T00:39:53.050Z,2.83
2018-01-10T00:39:57.371Z,2.83
2018-01-10T00:40:01.501Z,2.82
2018-01-10T00:40:05.989Z,2.83
2018-01-10T00:40:10.017Z,2.83
2018-01-10T00:40:13.829Z,2.82
2018-01-10T00:40:18.153Z,2.82
2018-01-10T00:40:22.164Z,2.82
2018-01-10T00:40:26.403Z,2.81
2018-01-10T00:40:30.525Z,2.81
2018-01-10T00:40:34.639Z,2.82
2018-01-10T00:40:38.668Z,2.82
2018-01-10T00:40:42.703Z,2.81
2018-01-10T00:40:46.637Z,2.81
2018-01-10T00:40:50.994Z,2.81
2018-01-10T00:40:54.910Z,2.81
2018-01-10T00:40:59.153Z,2.81
2018-01-10T00:41:03.605Z,2.8
2018-01-10T00:41:07.743Z,2.81
2018-01-10T00:41:11.970Z,2.8
2018-01-10T00:41:16.099Z,2.8
2018-01-10T00:41:20.223Z,2.79
2018-01-10T00:41:24.486Z,2.8
2018-01-10T00:41:28.609Z,2.8
2018-01-10T00:41:32.535Z,2.8
2018-01-10T00:41:36.674Z,2.8
2018-01-10T00:41:40.929Z,2.79
2018-01-10T00:41:45.264Z,2.8
2018-01-10T00:41:49.384Z,2.79
2018-01-10T00:41:53.617Z,2.8
2018-01-10T00:41:57.969Z,2.79
2018-01-10T00:42:02.530Z,2.79
2018-01-10T00:42:06.677Z,2.79
2018-01-10T00:42:11.020Z,2.79
2018-01-10T00:42:15.360Z,2.78
2018-01-10T00:42:19.180Z,2.79
2018-01-10T00:42:23.320Z,2.78
2018-01-10T00:42:27.446Z,2.78
2018-01-10T00:42:31.381Z,2.78
2018-01-10T00:42:35.406Z,2.78
2018-01-10T00:42:39.531Z,2.78
2018-01-10T00:42:43.886Z,2.78
2018-01-10T00:42:48.002Z,2.78
2018-01-10T00:42:52.145Z,2.77
2018-01-10T00:42:56.384Z,2.77
2018-01-10T00:43:00.532Z,2.78
2018-01-10T00:43:04.693Z,2.77
2018-01-10T00:43:08.812Z,2.78
2018-01-10T00:43:12.945Z,2.77
2018-01-10T00:43:17.079Z,2.77
2018-01-10T00:43:21.395Z,2.77
2018-01-10T00:43:25.624Z,2.77
2018-01-10T00:43:29.851Z,2.76
2018-01-10T00:43:33.881Z,2.76
2018-01-10T00:43:38.017Z,2.77
2018-01-10T00:43:42.039Z,2.76
2018-01-10T00:43:46.260Z,2.76
2018-01-10T00:43:50.209Z,2.76
2018-01-10T00:43:54.350Z,2.75
2018-01-10T00:43:58.607Z,2.76
2018-01-10T00:44:02.739Z,2.76
2018-01-10T00:44:06.654Z,2.75
2018-01-10T00:44:10.566Z,2.76
2018-01-10T00:44:14.686Z,2.75
2018-01-10T00:44:18.806Z,2.76
2018-01-10T00:44:22.968Z,2.75
2018-01-10T00:44:27.098Z,2.75
2018-01-10T00:44:31.123Z,2.76
2018-01-10T00:44:35.045Z,2.75
2018-01-10T00:44:39.184Z,2.75
2018-01-10T00:44:43.108Z,2.75
2018-01-10T00:44:47.353Z,2.75
2018-01-10T00:44:51.368Z,2.75
2018-01-10T00:44:55.511Z,2.75
2018-01-10T00:44:59.572Z,2.76
2018-01-10T00:45:03.797Z,2.76
2018-01-10T00:45:07.932Z,2.75
2018-01-10T00:45:12.067Z,2.76
2018-01-10T00:45:16.280Z,2.75
2018-01-10T00:45:20.400Z,2.74
2018-01-10T00:45:24.638Z,2.75
2018-01-10T00:45:28.768Z,2.75
2018-01-10T00:45:32.899Z,2.76
2018-01-10T00:45:36.922Z,2.76
2018-01-10T00:45:41.047Z,2.76
2018-01-10T00:45:45.176Z,2.75
2018-01-10T00:45:49.526Z,2.76
2018-01-10T00:45:53.654Z,2.75
2018-01-10T00:45:57.885Z,2.75
2018-01-10T00:46:02.129Z,2.76
2018-01-10T00:46:06.270Z,2.76
2018-01-10T00:46:10.303Z,2.76
2018-01-10T00:46:14.648Z,2.76
2018-01-10T00:46:18.659Z,2.76
2018-01-10T00:46:22.883Z,2.75
2018-01-10T00:46:26.916Z,2.75
2018-01-10T00:46:31.045Z,2.76
2018-01-10T00:46:35.173Z,2.76
2018-01-10T00:46:39.525Z,2.77
2018-01-10T00:46:43.873Z,2.76
2018-01-10T00:46:47.908Z,2.76
2018-01-10T00:46:51.940Z,2.76
2018-01-10T00:46:56.060Z,2.76
2018-01-10T00:47:00.139Z,2.76
2018-01-10T00:47:04.720Z,2.76
2018-01-10T00:47:08.962Z,2.76
2018-01-10T00:47:12.777Z,2.76
2018-01-10T00:47:17.019Z,2.76
2018-01-10T00:47:21.163Z,2.77
2018-01-10T00:47:25.501Z,2.77
2018-01-10T00:47:29.736Z,2.77
2018-01-10T00:47:34.085Z,2.77
2018-01-10T00:47:38.211Z,2.77
2018-01-10T00:47:42.439Z,2.77
2018-01-10T00:47:46.697Z,2.78
2018-01-10T00:47:51.036Z,2.78
2018-01-10T00:47:55.044Z,2.78
2018-01-10T00:47:59.388Z,2.78
2018-01-10T00:48:03.612Z,2.77
2018-01-10T00:48:07.952Z,2.77
2018-01-10T00:48:12.286Z,2.77
2018-01-10T00:48:16.414Z,2.78
2018-01-10T00:48:20.575Z,2.78
2018-01-10T00:48:24.717Z,2.78
2018-01-10T00:48:28.860Z,2.78
2018-01-10T00:48:32.766Z,2.78
2018-01-10T00:48:36.791Z,2.78
2018-01-10T00:48:41.116Z,2.79
2018-01-10T00:48:45.233Z,2.79
2018-01-10T00:48:49.347Z,2.79
2018-01-10T00:48:53.485Z,2.79
2018-01-10T00:48:57.708Z,2.8
2018-01-10T00:49:01.755Z,2.8
2018-01-10T00:49:06.243Z,2.8
2018-01-10T00:49:10.250Z,2.8
2018-01-10T00:49:14.603Z,2.81
2018-01-10T00:49:18.940Z,2.8
2018-01-10T00:49:22.978Z,2.8
2018-01-10T00:49:27.213Z,2.81
2018-01-10T00:49:31.331Z,2.81
2018-01-10T00:49:35.459Z,2.81
2018-01-10T00:49:39.680Z,2.81
2018-01-10T00:49:43.831Z,2.81
2018-01-10T00:49:48.070Z,2.81
2018-01-10T00:49:51.988Z,2.81
2018-01-10T00:49:56.212Z,2.82
2018-01-10T00:50:00.231Z,2.82
2018-01-10T00:50:04.270Z,2.82
2018-01-10T00:50:08.300Z,2.82
2018-01-10T00:50:12.638Z,2.83
2018-01-10T00:50:16.970Z,2.84
2018-01-10T00:50:21.101Z,2.84
2018-01-10T00:50:25.336Z,2.84
2018-01-10T00:50:29.259Z,2.84
2018-01-10T00:50:33.503Z,2.84
2018-01-10T00:50:37.743Z,2.84
2018-01-10T00:50:41.878Z,2.83
2018-01-10T00:50:46.118Z,2.84
2018-01-10T00:50:50.341Z,2.86
2018-01-10T00:50:54.566Z,2.85
2018-01-10T00:50:58.687Z,2.86
2018-01-10T00:51:03.233Z,2.85
2018-01-10T00:51:07.474Z,2.86
2018-01-10T00:51:11.713Z,2.86
2018-01-10T00:51:15.959Z,2.85
2018-01-10T00:51:20.009Z,2.86
2018-01-10T00:51:24.140Z,2.86
2018-01-10T00:51:28.377Z,2.86
2018-01-10T00:51:32.615Z,2.86
2018-01-10T00:51:36.740Z,2.86
2018-01-10T00:51:41.074Z,2.87
2018-01-10T00:51:45.316Z,2.87
2018-01-10T00:51:49.251Z,2.87
2018-01-10T00:51:53.493Z,2.87
2018-01-10T00:51:57.725Z,2.87
2018-01-10T00:52:01.833Z,2.88
2018-01-10T00:52:06.073Z,2.88
2018-01-10T00:52:10.107Z,2.88
2018-01-10T00:52:14.143Z,2.88
2018-01-10T00:52:18.171Z,2.89
2018-01-10T00:52:22.497Z,2.88
2018-01-10T00:52:26.420Z,2.88
2018-01-10T00:52:30.664Z,2.88
2018-01-10T00:52:34.802Z,2.89
2018-01-10T00:52:39.031Z,2.88
2018-01-10T00:52:43.265Z,2.89
2018-01-10T00:52:47.503Z,2.89
2018-01-10T00:52:51.641Z,2.89
2018-01-10T00:52:55.683Z,2.9
2018-01-10T00:53:00.051Z,2.88
2018-01-10T00:53:04.181Z,2.89
2018-01-10T00:53:08.413Z,2.9
2018-01-10T00:53:12.482Z,2.9
2018-01-10T00:53:16.503Z,2.9
2018-01-10T00:53:20.644Z,2.9
2018-01-10T00:53:24.881Z,2.9
2018-01-10T00:53:29.006Z,2.9
2018-01-10T00:53:33.143Z,2.91
2018-01-10T00:53:37.250Z,2.91
2018-01-10T00:53:41.599Z,2.91
2018-01-10T00:53:45.727Z,2.9
2018-01-10T00:53:49.849Z,2.91
2018-01-10T00:53:53.762Z,2.92
2018-01-10T00:53:58.141Z,2.92
2018-01-10T00:54:02.377Z,2.91
2018-01-10T00:54:06.491Z,2.92
2018-01-10T00:54:10.722Z,2.92
2018-01-10T00:54:14.858Z,2.92
2018-01-10T00:54:18.978Z,2.93
2018-01-10T00:54:22.906Z,2.92
2018-01-10T00:54:26.953Z,2.92
2018-01-10T00:54:31.191Z,2.92
2018-01-10T00:54:35.218Z,2.93
2018-01-10T00:54:39.558Z,2.92
2018-01-10T00:54:43.566Z,2.93
2018-01-10T00:54:47.680Z,2.93
2018-01-10T00:54:52.016Z,2.94
2018-01-10T00:54:56.239Z,2.94
2018-01-10T00:55:00.474Z,2.93
2018-01-10T00:55:04.726Z,2.93
2018-01-10T00:55:08.973Z,2.93
2018-01-10T00:55:13.208Z,2.94
2018-01-10T00:55:17.459Z,2.94
2018-01-10T00:55:21.474Z,2.93
2018-01-10T00:55:25.599Z,2.94
2018-01-10T00:55:29.304Z,2.94
2018-01-10T00:55:33.330Z,2.94